createdAt,value
2019-04-18T00:01:53.521Z,60.09
2019-04-18T00:04:44.795Z,63.51
2019-04-18T00:07:17.829Z,63.37
2019-04-18T00:09:48.051Z,61.97
2019-04-18T00:12:22.171Z,62.04
2019-04-18T00:14:50.712Z,61.07
2019-04-18T00:17:24.222Z,60.15
2019-04-18T00:19:57.291Z,61.68
2019-04-18T00:22:28.063Z,61.79
2019-04-18T00:25:00.144Z,61.79
2019-04-18T00:27:30.317Z,60.99
2019-04-18T00:30:01.342Z,61.17
2019-04-18T00:32:31.947Z,60.95
2019-04-18T00:35:02.928Z,60.78
2019-04-18T00:37:33.334Z,61.04
2019-04-18T00:40:03.694Z,60.76
2019-04-18T00:42:34.346Z,61.80
2019-04-18T00:45:09.624Z,61.99
2019-04-18T00:47:46.143Z,62.66
2019-04-18T00:50:16.500Z,63.22
2019-04-18T00:52:50.914Z,61.90
2019-04-18T00:55:21.270Z,62.14
2019-04-18T00:57:51.849Z,63.32
2019-04-18T01:03:05.968Z,65.01
2019-04-18T01:05:43.278Z,64.41
2019-04-18T01:08:22.985Z,64.48
2019-04-18T01:10:53.983Z,63.84
2019-04-18T01:13:27.401Z,64.42
2019-04-18T01:15:58.341Z,64.74
2019-04-18T01:18:28.910Z,65.35
2019-04-18T01:21:03.829Z,66.32
2019-04-18T01:23:31.748Z,67.09
2019-04-18T01:26:12.454Z,67.78
2019-04-18T01:28:45.684Z,68.71
2019-04-18T01:31:16.113Z,69.37
2019-04-18T01:33:46.385Z,70.43
2019-04-18T01:36:16.639Z,71.11
2019-04-18T01:38:46.830Z,70.21
2019-04-18T01:41:24.289Z,70.85
2019-04-18T01:44:01.003Z,70.59
2019-04-18T01:46:35.637Z,69.75
2019-04-18T01:49:09.461Z,70.78
2019-04-18T01:51:38.284Z,71.61
2019-04-18T01:54:17.436Z,71.80
2019-04-18T01:56:59.876Z,71.92
2019-04-18T01:59:30.001Z,72.17
2019-04-18T02:02:00.345Z,72.59
2019-04-18T02:04:30.708Z,73.04
2019-04-18T02:07:01.488Z,72.65
2019-04-18T02:09:32.238Z,73.02
2019-04-18T02:12:02.738Z,73.17
2019-04-18T02:14:32.946Z,72.70
2019-04-18T02:17:07.456Z,72.70
2019-04-18T02:19:37.759Z,73.11
2019-04-18T02:22:10.227Z,72.05
2019-04-18T02:24:40.190Z,72.78
2019-04-18T02:27:10.477Z,72.54
2019-04-18T02:29:42.662Z,72.71
2019-04-18T02:32:12.864Z,73.41
2019-04-18T02:34:43.381Z,74.90
2019-04-18T02:37:14.158Z,74.60
2019-04-18T02:39:44.547Z,75.06
2019-04-18T02:42:17.143Z,74.52
2019-04-18T02:44:46.759Z,75.19
2019-04-18T02:47:19.341Z,73.99
2019-04-18T02:49:51.325Z,72.75
2019-04-18T02:52:24.638Z,71.15
2019-04-18T02:54:53.787Z,72.23
2019-04-18T02:57:31.073Z,72.92
2019-04-18T03:03:37.356Z,73.47
2019-04-18T03:06:11.583Z,72.38
2019-04-18T03:08:39.655Z,72.25
2019-04-18T03:11:10.432Z,70.67
2019-04-18T03:13:43.763Z,70.58
2019-04-18T03:16:15.444Z,70.97
2019-04-18T03:18:48.365Z,72.43
2019-04-18T03:21:25.406Z,73.68
2019-04-18T03:23:53.907Z,75.33
2019-04-18T03:26:27.761Z,76.34
2019-04-18T03:28:56.491Z,77.20
2019-04-18T03:31:27.966Z,76.89
2019-04-18T03:34:00.353Z,77.30
2019-04-18T03:36:44.539Z,77.34
2019-04-18T03:39:17.846Z,76.92
2019-04-18T03:41:46.881Z,77.74
2019-04-18T03:44:17.023Z,78.02
2019-04-18T03:46:47.832Z,77.45
2019-04-18T03:49:18.076Z,77.47
2019-04-18T03:51:48.316Z,79.51
2019-04-18T03:54:25.506Z,80.43
2019-04-18T03:56:58.011Z,80.83
2019-04-18T03:59:28.156Z,81.18
2019-04-18T04:01:58.864Z,81.24
2019-04-18T04:04:30.296Z,80.96
2019-04-18T04:07:00.575Z,81.23
2019-04-18T04:09:33.989Z,81.48
2019-04-18T04:12:02.929Z,82.32
2019-04-18T04:14:33.114Z,82.76
2019-04-18T04:17:03.420Z,82.36
2019-04-18T04:19:33.737Z,82.21
2019-04-18T04:22:08.699Z,82.97
2019-04-18T04:24:35.953Z,82.34
2019-04-18T04:27:11.110Z,82.64
2019-04-18T04:29:42.408Z,81.97
2019-04-18T04:32:16.525Z,82.88
2019-04-18T04:34:52.672Z,82.42
2019-04-18T04:37:37.952Z,82.99
2019-04-18T04:39:57.851Z,82.91
2019-04-18T04:42:39.860Z,81.91
2019-04-18T04:45:12.507Z,81.92
2019-04-18T04:47:49.196Z,81.78
2019-04-18T04:51:24.888Z,82.35
2019-04-18T04:54:10.985Z,82.31
2019-04-18T04:57:06.115Z,82.65
2019-04-18T05:03:15.016Z,82.46
2019-04-18T05:05:42.646Z,82.15
2019-04-18T05:08:14.069Z,81.47
2019-04-18T05:10:47.856Z,81.65
2019-04-18T05:13:17.504Z,80.96
2019-04-18T05:15:50.207Z,82.86
2019-04-18T05:18:35.427Z,81.18
2019-04-18T05:21:08.904Z,81.22
2019-04-18T05:23:39.354Z,81.31
2019-04-18T05:26:12.983Z,81.66
2019-04-18T05:28:49.338Z,93.69
2019-04-18T05:31:21.728Z,78.18
2019-04-18T05:33:56.586Z,79.27
2019-04-18T05:36:27.027Z,87.05
2019-04-18T05:39:10.366Z,78.09
2019-04-18T05:41:43.015Z,78.20
2019-04-18T05:44:15.264Z,77.99
2019-04-18T05:47:31.052Z,77.76
2019-04-18T05:50:10.855Z,77.62
2019-04-18T05:53:06.938Z,77.39
2019-04-18T05:55:37.509Z,76.88
2019-04-18T05:58:19.816Z,76.04
2019-04-18T06:00:57.749Z,73.67
2019-04-18T06:03:36.874Z,72.84
2019-04-18T06:06:16.219Z,71.37
2019-04-18T06:09:04.466Z,70.90
2019-04-18T06:11:38.669Z,70.82
2019-04-18T06:14:31.758Z,69.76
2019-04-18T06:17:35.236Z,69.24
2019-04-18T06:20:01.877Z,68.59
2019-04-18T06:22:41.946Z,66.26
2019-04-18T06:25:29.128Z,66.09
2019-04-18T06:28:16.692Z,65.18
2019-04-18T06:31:00.480Z,64.11
2019-04-18T06:33:36.532Z,63.94
2019-04-18T06:36:07.555Z,63.69
2019-04-18T06:38:56.783Z,63.59
2019-04-18T06:41:29.312Z,60.77
2019-04-18T06:44:20.855Z,60.49
2019-04-18T06:46:57.315Z,61.26
2019-04-18T06:49:39.586Z,61.31
2019-04-18T06:52:10.122Z,61.09
2019-04-18T06:54:40.789Z,60.58
2019-04-18T06:57:11.351Z,61.47
2019-04-18T07:03:07.235Z,60.65
2019-04-18T07:05:37.593Z,60.21
2019-04-18T07:08:18.178Z,59.25
2019-04-18T07:10:56.787Z,58.45
2019-04-18T07:13:37.381Z,58.98
2019-04-18T07:16:14.830Z,57.97
2019-04-18T07:18:45.184Z,58.22
2019-04-18T07:21:37.756Z,57.97
2019-04-18T07:24:08.064Z,58.07
2019-04-18T07:26:38.523Z,58.05
2019-04-18T07:29:08.834Z,57.63
2019-04-18T07:31:39.165Z,58.26
2019-04-18T07:34:10.567Z,57.24
2019-04-18T07:36:40.968Z,57.39
2019-04-18T07:39:11.494Z,56.89
2019-04-18T07:41:41.832Z,57.35
2019-04-18T07:44:18.916Z,56.98
2019-04-18T07:46:49.115Z,57.08
2019-04-18T07:49:19.413Z,56.54
2019-04-18T07:51:49.886Z,56.14
2019-04-18T07:54:20.405Z,55.34
2019-04-18T07:56:54.896Z,55.96
2019-04-18T07:59:25.319Z,56.34
2019-04-18T08:01:57.853Z,55.05
2019-04-18T08:04:27.811Z,55.26
2019-04-18T08:06:59.863Z,54.96
2019-04-18T08:09:38.636Z,54.80
2019-04-18T08:12:05.587Z,54.50
2019-04-18T08:14:36.049Z,53.94
2019-04-18T08:17:06.472Z,53.57
2019-04-18T08:19:36.796Z,52.45
2019-04-18T08:22:10.580Z,52.25
2019-04-18T08:24:43.605Z,51.53
2019-04-18T08:27:16.024Z,50.94
2019-04-18T08:29:46.350Z,51.10
2019-04-18T08:32:16.922Z,51.53
2019-04-18T08:34:47.235Z,50.92
2019-04-18T08:37:22.040Z,50.59
2019-04-18T08:39:56.554Z,50.58
2019-04-18T08:42:42.064Z,49.98
2019-04-18T08:45:31.944Z,49.96
2019-04-18T08:48:07.017Z,49.39
2019-04-18T08:50:43.346Z,49.42
2019-04-18T08:53:47.937Z,49.44
2019-04-18T08:56:11.222Z,48.77
2019-04-18T08:58:41.636Z,48.36
2019-04-18T09:03:28.446Z,48.45
2019-04-18T09:05:51.281Z,47.15
2019-04-18T09:08:22.125Z,47.67
2019-04-18T09:11:01.558Z,47.69
2019-04-18T09:13:55.208Z,46.76
2019-04-18T09:16:25.850Z,46.06
2019-04-18T09:18:57.517Z,46.85
2019-04-18T09:21:28.051Z,44.40
2019-04-18T09:23:58.741Z,45.65
2019-04-18T09:29:04.959Z,45.20
2019-04-18T09:31:35.199Z,44.92
2019-04-18T09:34:06.864Z,44.31
2019-04-18T09:36:40.253Z,44.70
2019-04-18T09:39:12.133Z,44.80
2019-04-18T09:41:42.709Z,44.78
2019-04-18T09:44:16.957Z,44.59
2019-04-18T09:46:50.809Z,44.37
2019-04-18T09:49:21.056Z,44.15
2019-04-18T09:51:51.282Z,43.75
2019-04-18T09:54:27.710Z,43.41
2019-04-18T09:56:58.104Z,43.27
2019-04-18T09:59:28.348Z,43.41
2019-04-18T10:02:01.872Z,43.97
2019-04-18T10:04:50.376Z,43.25
2019-04-18T10:07:18.610Z,43.67
2019-04-18T10:09:48.921Z,42.55
2019-04-18T10:12:25.957Z,42.55
2019-04-18T10:14:51.379Z,42.64
2019-04-18T10:17:21.641Z,43.09
2019-04-18T10:19:55.879Z,42.28
2019-04-18T10:22:32.973Z,43.08
2019-04-18T10:25:25.099Z,42.06
2019-04-18T10:28:05.785Z,40.97
2019-04-18T10:30:55.280Z,42.06
2019-04-18T10:33:25.720Z,40.61
2019-04-18T10:35:56.137Z,41.06
2019-04-18T10:38:26.495Z,41.00
2019-04-18T10:40:56.945Z,39.94
2019-04-18T10:43:27.252Z,40.82
2019-04-18T10:45:57.546Z,40.58
2019-04-18T10:48:27.924Z,40.33
2019-04-18T10:50:58.493Z,39.80
2019-04-18T11:03:07.805Z,38.44
2019-04-18T11:05:38.513Z,38.99
2019-04-18T11:08:08.936Z,39.29
2019-04-18T11:10:39.175Z,39.08
2019-04-18T11:13:09.781Z,37.97
2019-04-18T11:15:40.041Z,38.44
2019-04-18T11:18:13.018Z,38.18
2019-04-18T11:20:45.428Z,38.65
2019-04-18T11:23:15.695Z,37.66
2019-04-18T11:25:46.137Z,37.27
2019-04-18T11:28:19.603Z,37.82
2019-04-18T11:30:58.781Z,37.60
2019-04-18T11:33:21.917Z,37.31
2019-04-18T11:35:52.290Z,37.49
2019-04-18T11:38:22.599Z,36.95
2019-04-18T11:40:53.039Z,37.72
2019-04-18T11:43:23.384Z,37.13
2019-04-18T11:45:54.257Z,36.55
2019-04-18T11:48:24.552Z,37.43
2019-04-18T11:50:57.615Z,36.61
2019-04-18T11:53:28.001Z,36.51
2019-04-18T11:56:01.101Z,36.42
2019-04-18T11:58:31.630Z,35.71
2019-04-18T12:01:21.046Z,35.59
2019-04-18T12:04:09.244Z,35.63
2019-04-18T12:06:39.544Z,35.93
2019-04-18T12:09:10.969Z,36.16
2019-04-18T12:11:41.430Z,35.90
2019-04-18T12:14:11.690Z,36.01
2019-04-18T12:16:42.232Z,36.03
2019-04-18T12:19:12.831Z,35.67
2019-04-18T12:21:43.151Z,35.30
2019-04-18T12:24:13.510Z,35.04
2019-04-18T12:26:43.885Z,34.91
2019-04-18T12:29:14.311Z,34.94
2019-04-18T12:31:56.511Z,34.76
2019-04-18T12:34:30.623Z,34.95
2019-04-18T12:37:04.142Z,34.83
2019-04-18T12:39:34.578Z,34.66
2019-04-18T12:42:05.237Z,34.86
2019-04-18T12:44:38.744Z,34.28
2019-04-18T12:47:18.612Z,34.92
2019-04-18T12:49:49.265Z,35.03
2019-04-18T12:52:19.809Z,34.67
2019-04-18T12:54:52.613Z,33.65
2019-04-18T12:57:23.028Z,33.63
2019-04-18T13:03:12.327Z,33.53
2019-04-18T13:05:42.700Z,33.72
2019-04-18T13:08:19.323Z,33.79
2019-04-18T13:11:06.012Z,33.68
2019-04-18T13:13:55.488Z,33.05
2019-04-18T13:16:33.475Z,33.46
2019-04-18T13:19:05.014Z,33.38
2019-04-18T13:21:35.692Z,32.96
2019-04-18T13:25:49.591Z,32.62
2019-04-18T13:26:38.606Z,31.68
2019-04-18T13:29:09.481Z,30.45
2019-04-18T13:31:40.157Z,29.97
2019-04-18T13:34:11.267Z,30.31
2019-04-18T13:36:41.900Z,30.95
2019-04-18T13:39:19.105Z,31.69
2019-04-18T13:41:59.493Z,31.57
2019-04-18T13:44:30.035Z,31.67
2019-04-18T13:47:00.485Z,31.86
2019-04-18T13:49:30.800Z,32.51
2019-04-18T13:52:01.744Z,31.41
2019-04-18T13:54:32.108Z,31.12
2019-04-18T13:57:05.931Z,31.32
2019-04-18T13:59:39.249Z,32.18
2019-04-18T14:02:22.380Z,31.82
2019-04-18T14:04:51.464Z,32.58
2019-04-18T14:07:22.064Z,32.39
2019-04-18T14:09:52.485Z,32.20
2019-04-18T14:12:23.884Z,32.66
2019-04-18T14:14:54.303Z,32.91
2019-04-18T14:17:24.827Z,32.20
2019-04-18T14:19:58.025Z,32.50
2019-04-18T14:22:28.400Z,32.93
2019-04-18T14:24:58.773Z,32.66
2019-04-18T14:27:32.176Z,32.09
2019-04-18T14:30:02.640Z,32.34
2019-04-18T14:32:34.535Z,31.49
2019-04-18T14:35:11.129Z,31.74
2019-04-18T14:37:44.429Z,31.87
2019-04-18T14:40:15.514Z,32.76
2019-04-18T14:42:46.095Z,32.84
2019-04-18T14:45:16.699Z,32.84
2019-04-18T14:48:01.939Z,32.46
2019-04-18T14:50:19.566Z,32.42
2019-04-18T14:52:56.027Z,31.54
2019-04-18T14:55:27.143Z,31.39
2019-04-18T14:57:57.841Z,31.53
2019-04-18T15:03:05.397Z,30.71
2019-04-18T15:05:36.086Z,31.75
2019-04-18T15:08:10.523Z,32.90
2019-04-18T15:10:42.682Z,32.21
2019-04-18T15:13:13.088Z,32.07
2019-04-18T15:15:43.912Z,32.16
2019-04-18T15:18:14.418Z,32.67
2019-04-18T15:20:50.747Z,32.72
2019-04-18T15:23:21.278Z,32.56
2019-04-18T15:25:51.703Z,31.59
2019-04-18T15:28:21.624Z,30.59
2019-04-18T15:30:54.134Z,30.48
2019-04-18T15:33:23.851Z,30.56
2019-04-18T15:35:54.534Z,30.66
2019-04-18T15:38:24.349Z,30.32
2019-04-18T15:40:58.124Z,30.84
2019-04-18T15:43:26.966Z,32.15
2019-04-18T15:46:05.299Z,32.81
2019-04-18T15:48:46.110Z,33.20
2019-04-18T15:51:16.122Z,33.05
2019-04-18T15:53:46.723Z,31.87
2019-04-18T15:56:17.490Z,32.71
2019-04-18T15:58:48.601Z,33.07
2019-04-18T16:01:20.064Z,32.87
2019-04-18T16:03:51.440Z,31.94
2019-04-18T16:06:28.021Z,30.86
2019-04-18T16:08:58.378Z,32.17
2019-04-18T16:11:29.004Z,32.35
2019-04-18T16:13:59.447Z,33.04
2019-04-18T16:16:30.121Z,33.26
2019-04-18T16:19:00.542Z,33.42
2019-04-18T16:21:31.075Z,34.28
2019-04-18T16:24:01.653Z,34.52
2019-04-18T16:26:32.230Z,34.79
2019-04-18T16:29:03.217Z,34.88
2019-04-18T16:31:39.454Z,35.39
2019-04-18T16:34:16.244Z,35.35
2019-04-18T16:36:48.689Z,35.70
2019-04-18T16:39:45.081Z,35.28
2019-04-18T16:42:09.775Z,35.40
2019-04-18T16:44:54.600Z,35.77
2019-04-18T16:47:26.543Z,35.22
2019-04-18T16:50:29.432Z,35.08
2019-04-18T16:53:01.122Z,35.67
2019-04-18T16:55:35.832Z,35.50
2019-04-18T16:58:08.583Z,36.28
2019-04-18T17:03:07.420Z,35.15
2019-04-18T17:05:38.585Z,35.58
2019-04-18T17:08:12.148Z,36.41
2019-04-18T17:10:42.922Z,34.24
2019-04-18T17:13:13.769Z,33.44
2019-04-18T17:15:47.885Z,32.86
2019-04-18T17:18:22.200Z,32.25
2019-04-18T17:20:53.243Z,32.18
2019-04-18T17:23:27.797Z,32.16
2019-04-18T17:26:00.677Z,32.46
2019-04-18T17:28:37.084Z,32.86
2019-04-18T17:31:11.329Z,33.18
2019-04-18T17:33:42.595Z,33.16
2019-04-18T17:36:27.738Z,32.78
2019-04-18T17:39:04.904Z,32.75
2019-04-18T17:41:23.777Z,32.85
2019-04-18T17:43:57.825Z,32.81
2019-04-18T17:46:28.389Z,33.31
2019-04-18T17:49:08.806Z,35.04
2019-04-18T17:51:47.826Z,35.66
2019-04-18T17:54:27.092Z,36.09
2019-04-18T17:56:53.332Z,36.36
2019-04-18T17:59:27.067Z,36.71
2019-04-18T18:02:11.994Z,36.79
2019-04-18T18:04:50.129Z,37.49
2019-04-18T18:07:23.844Z,37.59
2019-04-18T18:09:59.084Z,37.95
2019-04-18T18:12:34.714Z,38.31
2019-04-18T18:15:11.427Z,38.50
2019-04-18T18:17:52.215Z,39.19
2019-04-18T18:20:26.439Z,39.24
2019-04-18T18:23:05.847Z,39.74
2019-04-18T18:25:34.465Z,40.30
2019-04-18T18:28:10.372Z,40.50
2019-04-18T18:30:47.968Z,41.37
2019-04-18T18:33:21.691Z,40.96
2019-04-18T18:36:11.044Z,41.79
2019-04-18T18:38:37.501Z,42.08
2019-04-18T18:41:11.235Z,42.12
2019-04-18T18:43:57.541Z,42.81
2019-04-18T18:46:33.564Z,43.16
2019-04-18T18:49:07.702Z,43.64
2019-04-18T18:51:39.613Z,42.90
2019-04-18T18:54:16.006Z,43.91
2019-04-18T19:03:33.304Z,45.43
2019-04-18T19:06:20.312Z,45.88
2019-04-18T19:09:10.724Z,45.44
2019-04-18T19:11:38.417Z,45.97
2019-04-18T19:14:09.903Z,47.54
2019-04-18T19:16:41.890Z,47.13
2019-04-18T19:19:01.547Z,47.04
2019-04-18T19:21:36.933Z,48.22
2019-04-18T19:24:11.041Z,48.04
2019-04-18T19:26:52.551Z,47.96
2019-04-18T19:29:27.069Z,49.25
2019-04-18T19:32:01.995Z,49.01
2019-04-18T19:34:32.585Z,49.55
2019-04-18T19:37:17.949Z,50.03
2019-04-18T19:40:14.421Z,50.51
2019-04-18T19:42:30.589Z,50.63
2019-04-18T19:45:05.840Z,51.04
2019-04-18T19:47:31.780Z,51.69
2019-04-18T19:50:07.165Z,51.26
2019-04-18T19:52:42.918Z,51.32
2019-04-18T19:55:22.827Z,51.23
2019-04-18T19:57:53.317Z,51.75
2019-04-18T20:00:26.137Z,52.45
2019-04-18T20:02:57.750Z,51.63
2019-04-18T20:05:49.826Z,52.06
2019-04-18T20:08:13.355Z,52.52
2019-04-18T20:10:54.313Z,52.08
2019-04-18T20:13:17.318Z,52.47
2019-04-18T20:15:42.820Z,52.80
2019-04-18T20:18:14.790Z,53.53
2019-04-18T20:20:45.594Z,53.54
2019-04-18T20:23:17.965Z,52.95
2019-04-18T20:25:49.533Z,53.20
2019-04-18T20:28:20.849Z,54.00
2019-04-18T20:30:55.806Z,54.56
2019-04-18T20:33:28.298Z,54.12
2019-04-18T20:36:29.725Z,54.38
2019-04-18T20:39:09.275Z,55.03
2019-04-18T20:41:52.440Z,54.95
2019-04-18T20:44:07.481Z,55.72
2019-04-18T20:46:32.392Z,55.52
2019-04-18T20:49:14.216Z,55.59
2019-04-18T20:51:40.120Z,55.81
2019-04-18T20:56:57.594Z,57.30
2019-04-18T21:03:17.641Z,57.96
2019-04-18T21:05:51.175Z,57.90
2019-04-18T21:08:33.428Z,57.50
2019-04-18T21:10:55.857Z,57.08
2019-04-18T21:13:26.532Z,56.92
2019-04-18T21:16:02.866Z,56.82
2019-04-18T21:18:37.189Z,56.96
2019-04-18T21:21:04.724Z,56.77
2019-04-18T21:23:37.044Z,57.39
2019-04-18T21:26:13.602Z,57.58
2019-04-18T21:28:43.546Z,58.43
2019-04-18T21:31:18.636Z,59.27
2019-04-18T21:33:54.454Z,59.37
2019-04-18T21:36:27.084Z,59.53
2019-04-18T21:39:01.395Z,60.14
2019-04-18T21:41:31.951Z,60.20
2019-04-18T21:44:07.386Z,60.46
2019-04-18T21:46:39.377Z,60.59
2019-04-18T21:49:07.794Z,60.61
2019-04-18T21:51:42.348Z,60.18
2019-04-18T21:54:12.926Z,59.99
2019-04-18T21:56:49.811Z,60.67
2019-04-18T21:59:30.833Z,60.95
2019-04-18T22:01:53.545Z,60.75
2019-04-18T22:04:29.858Z,60.89
2019-04-18T22:07:11.053Z,60.76
2019-04-18T22:09:28.669Z,61.42
2019-04-18T22:12:01.600Z,61.17
2019-04-18T22:14:37.530Z,61.06
2019-04-18T22:17:11.645Z,61.80
2019-04-18T22:19:57.697Z,61.55
2019-04-18T22:22:44.736Z,61.22
2019-04-18T22:25:22.262Z,61.37
2019-04-18T22:27:56.774Z,61.81
2019-04-18T22:30:26.772Z,61.90
2019-04-18T22:33:14.777Z,63.04
2019-04-18T22:35:47.313Z,63.54
2019-04-18T22:38:20.468Z,63.74
2019-04-18T22:40:53.189Z,63.69
2019-04-18T22:43:24.711Z,64.74
2019-04-18T22:45:54.351Z,64.54
2019-04-18T22:48:27.774Z,64.56
2019-04-18T22:50:57.214Z,64.29
2019-04-18T22:53:28.746Z,64.49
2019-04-18T22:56:04.817Z,64.35
2019-04-18T22:58:31.357Z,64.07
2019-04-18T23:03:06.901Z,64.64
2019-04-18T23:05:38.319Z,65.03
2019-04-18T23:08:22.698Z,66.44
2019-04-18T23:10:41.957Z,66.65
2019-04-18T23:13:18.326Z,66.72
2019-04-18T23:15:44.434Z,67.58
2019-04-18T23:18:22.655Z,67.51
2019-04-18T23:20:46.938Z,67.12
2019-04-18T23:23:19.455Z,67.69
2019-04-18T23:25:49.440Z,68.34
2019-04-18T23:28:21.431Z,69.06
2019-04-18T23:30:51.966Z,69.25
2019-04-18T23:33:23.614Z,69.54
2019-04-18T23:35:56.579Z,69.50
2019-04-18T23:38:35.686Z,69.60
2019-04-18T23:40:58.223Z,68.77
2019-04-18T23:43:34.403Z,69.46
2019-04-18T23:46:01.229Z,69.41
2019-04-18T23:48:36.627Z,69.60
2019-04-18T23:51:04.471Z,69.20
2019-04-18T23:53:40.811Z,69.30
2019-04-18T23:56:06.913Z,69.11
2019-04-18T23:58:45.786Z,68.59
